Time;durP1;ratioP1;P1;durP2;ratioP2;P2;SDS_P1;SDS_P2;PMS_P1;PMS_P2;Temp;Humidity;BMP_temperature;BMP_pressure;BME280_temperature;BME280_humidity;BME280_pressure;Samples;Min_cycle;Max_cycle;Signal;HPM_P1;HPM_P2
2022/10/11 00:01:49;;;;;;;1999.90;999.90;;;10.60;99.90;;;;;;5066398;28;20489;-79
2022/10/11 00:04:14;;;;;;;1999.90;999.90;;;9.90;99.90;;;;;;5050164;28;20085;-79
2022/10/11 00:06:42;;;;;;;1999.90;999.90;;;11.20;99.90;;;;;;5065330;28;20401;-79
2022/10/11 00:09:10;;;;;;;1999.90;999.90;;;10.40;99.90;;;;;;5049583;28;20052;-80
2022/10/11 00:11:36;;;;;;;;;;;10.30;99.90;;;;;;5050996;28;20045;-84
2022/10/11 00:14:02;;;;;;;1999.90;999.90;;;10.30;99.90;;;;;;5068710;28;19987;-79
2022/10/11 00:16:28;;;;;;;1999.90;999.90;;;9.80;99.90;;;;;;5049565;28;20516;-78
2022/10/11 00:18:53;;;;;;;1999.90;999.90;;;9.70;99.90;;;;;;5065568;28;20041;-79
2022/10/11 00:21:20;;;;;;;1999.90;999.90;;;10.30;99.90;;;;;;5049488;28;20191;-80
2022/10/11 00:23:46;;;;;;;1999.90;999.90;;;10.10;99.90;;;;;;5050414;28;20118;-83
2022/10/11 00:26:12;;;;;;;1999.90;999.90;;;9.80;99.90;;;;;;5053204;28;20048;-80
2022/10/11 00:28:39;;;;;;;1999.90;999.90;;;10.00;99.90;;;;;;5049380;28;20397;-80
2022/10/11 00:31:14;;;;;;;1999.90;999.90;;;10.00;99.90;;;;;;5032163;28;20053;-79
2022/10/11 00:33:40;;;;;;;1999.90;999.90;;;9.80;99.90;;;;;;5050249;28;20067;-79
2022/10/11 00:36:07;;;;;;;1999.90;999.90;;;9.70;99.90;;;;;;5049366;28;20037;-79
2022/10/11 00:38:33;;;;;;;1999.90;999.90;;;9.90;99.90;;;;;;5053154;28;20045;-79
2022/10/11 00:40:59;;;;;;;1999.90;999.90;;;11.40;99.90;;;;;;5050771;28;20040;-78
2022/10/11 00:43:27;;;;;;;1999.90;999.90;;;9.80;99.90;;;;;;5064558;28;20106;-79
2022/10/11 00:45:55;;;;;;;1999.90;999.90;;;10.90;99.90;;;;;;5050123;28;20048;-79
2022/10/11 00:48:32;;;;;;;1999.90;999.90;;;9.90;99.90;;;;;;5049304;28;20092;-79
2022/10/11 00:51:01;;;;;;;1999.90;999.90;;;10.00;99.90;;;;;;5049718;28;20165;-83
2022/10/11 00:53:29;;;;;;;1999.90;999.90;;;10.80;99.90;;;;;;5035561;28;20091;-80
2022/10/11 00:56:03;;;;;;;1999.90;999.90;;;9.80;99.90;;;;;;5054774;28;20048;-83
2022/10/11 00:58:29;;;;;;;1999.90;999.90;;;10.60;99.90;;;;;;5033678;28;20068;-78
2022/10/11 01:00:55;;;;;;;1999.90;999.90;;;10.50;99.90;;;;;;5052044;28;20052;-79
2022/10/11 01:03:24;;;;;;;1999.90;999.90;;;10.00;99.90;;;;;;5032250;28;20055;-79
2022/10/11 01:05:50;;;;;;;1999.90;999.90;;;9.60;99.90;;;;;;5054994;28;20110;-79
2022/10/11 01:08:15;;;;;;;1999.90;999.90;;;9.70;99.90;;;;;;5033106;28;20113;-84
2022/10/11 01:10:41;;;;;;;1999.90;999.90;;;9.60;99.90;;;;;;5051169;28;20139;-79
2022/10/11 01:13:28;;;;;;;1999.90;999.90;;;10.00;99.90;;;;;;5047635;28;20392;-80
2022/10/11 01:16:30;;;;;;;1999.90;999.90;;;9.90;99.90;;;;;;5049169;28;20125;-79
2022/10/11 01:19:25;;;;;;;1999.90;999.90;;;9.70;99.90;;;;;;5049240;28;20064;-79
2022/10/11 01:22:05;;;;;;;1999.90;999.90;;;10.00;99.90;;;;;;5048616;28;20098;-79
2022/10/11 01:25:01;;;;;;;1999.90;999.90;;;9.80;99.90;;;;;;5030315;28;20243;-79
2022/10/11 01:27:48;;;;;;;1999.90;999.90;;;9.40;99.90;;;;;;5064225;28;20394;-83
2022/10/11 01:30:23;;;;;;;1999.90;999.90;;;10.30;99.90;;;;;;5049926;28;20045;-83
2022/10/11 01:33:04;;;;;;;1999.90;999.90;;;9.60;99.90;;;;;;5052266;28;20051;-78
2022/10/11 01:35:56;;;;;;;1999.90;999.90;;;10.50;99.90;;;;;;5048913;28;20090;-78
2022/10/11 01:38:41;;;;;;;1999.90;999.90;;;9.60;99.90;;;;;;5063116;28;20299;-79
2022/10/11 01:41:08;;;;;;;1999.90;999.90;;;11.40;99.90;;;;;;5049530;28;20124;-78
2022/10/11 01:43:35;;;;;;;1999.90;999.90;;;9.80;99.90;;;;;;5047622;28;20041;-79
2022/10/11 01:46:02;;;;;;;1999.90;999.90;;;11.90;99.90;;;;;;5031063;28;20072;-78
2022/10/11 01:48:28;;;;;;;1999.90;999.90;;;9.60;99.90;;;;;;5048670;28;20053;-84
2022/10/11 01:51:00;;;;;;;1999.90;999.90;;;9.80;99.90;;;;;;5033890;28;20048;-79
2022/10/11 01:53:41;;;;;;;1999.90;999.90;;;8.70;99.90;;;;;;5047346;28;20566;-78
2022/10/11 01:56:16;;;;;;;1999.90;999.90;;;9.70;99.90;;;;;;5047798;28;20080;-78
2022/10/11 01:59:06;;;;;;;1999.90;999.90;;;9.90;99.90;;;;;;5063360;28;20036;-78
2022/10/11 02:01:55;;;;;;;1999.90;999.90;;;9.50;99.90;;;;;;5047556;28;20131;-78
2022/10/11 02:04:43;;;;;;;1999.90;999.90;;;9.80;99.90;;;;;;5063200;28;20560;-79
2022/10/11 02:07:21;;;;;;;1999.90;999.90;;;9.50;99.90;;;;;;5047738;28;20045;-83
2022/10/11 02:09:55;;;;;;;1999.90;999.90;;;11.10;99.90;;;;;;5030327;28;20442;-83
2022/10/11 02:12:32;;;;;;;1999.90;999.90;;;9.60;99.90;;;;;;5050735;28;20040;-84
2022/10/11 02:15:02;;;;;;;1999.90;999.90;;;10.80;99.90;;;;;;5051212;28;20049;-78
2022/10/11 02:17:36;;;;;;;1999.90;999.90;;;10.70;99.90;;;;;;5029256;28;20112;-81
2022/10/11 02:20:09;;;;;;;1999.90;999.90;;;9.80;99.90;;;;;;5047862;28;20371;-78
2022/10/11 02:22:37;;;;;;;1999.90;999.90;;;9.80;99.90;;;;;;5046171;28;20052;-78
2022/10/11 02:25:07;;;;;;;1999.90;999.90;;;9.50;99.90;;;;;;5030036;28;20053;-78
2022/10/11 02:27:37;;;;;;;1999.90;999.90;;;9.60;99.90;;;;;;5048280;28;20063;-84
2022/10/11 02:30:06;;;;;;;1999.90;999.90;;;9.50;99.90;;;;;;5016249;28;20048;-78
2022/10/11 02:32:32;;;;;;;1999.90;999.90;;;9.60;99.90;;;;;;5029612;28;20041;-78
2022/10/11 02:35:00;;;;;;;1999.90;999.90;;;10.70;99.90;;;;;;5029776;28;20060;-79
2022/10/11 02:37:56;;;;;;;1999.90;999.90;;;9.30;99.90;;;;;;5047596;28;20049;-78
2022/10/11 02:40:34;;;;;;;1999.90;999.90;;;9.50;99.90;;;;;;5048222;28;20041;-78
2022/10/11 02:43:03;;;;;;;;;;;9.70;99.90;;;;;;5063918;28;20049;-79
2022/10/11 02:45:40;;;;;;;1999.90;999.90;;;9.70;99.90;;;;;;5050206;28;19964;-79
2022/10/11 02:48:09;;;;;;;1999.90;999.90;;;9.80;99.90;;;;;;5048892;28;20037;-80
2022/10/11 02:50:37;;;;;;;1999.90;999.90;;;9.70;99.90;;;;;;5048135;28;20041;-79
2022/10/11 02:53:03;;;;;;;;;;;10.90;99.90;;;;;;5047570;28;20485;-80
2022/10/11 02:55:29;;;;;;;1999.90;999.90;;;11.00;99.90;;;;;;5048266;28;19928;-79
2022/10/11 02:57:55;;;;;;;1999.90;999.90;;;9.70;99.90;;;;;;5061177;28;20041;-84
2022/10/11 03:00:21;;;;;;;1004.92;183.32;;;11.00;99.90;;;;;;5050216;28;20087;-80
2022/10/11 03:02:47;;;;;;;1999.90;413.38;;;10.50;99.90;;;;;;5047778;28;20084;-79
2022/10/11 03:05:12;;;;;;;1999.90;999.90;;;10.60;99.90;;;;;;5047412;28;20075;-79
2022/10/11 03:07:38;;;;;;;1999.90;999.90;;;9.90;99.90;;;;;;5047991;28;20446;-78
2022/10/11 03:10:05;;;;;;;1999.90;999.90;;;9.40;99.90;;;;;;5047179;28;20501;-79
2022/10/11 03:12:31;;;;;;;1999.90;999.90;;;9.50;99.90;;;;;;5049567;28;20048;-78
2022/10/11 03:14:56;;;;;;;1999.90;999.90;;;9.60;99.90;;;;;;5047424;28;20075;-79
2022/10/11 03:17:22;;;;;;;1999.90;999.90;;;9.40;99.90;;;;;;5046135;28;20056;-78
2022/10/11 03:19:48;;;;;;;1999.90;999.90;;;9.50;99.90;;;;;;5062246;28;20280;-78
2022/10/11 03:22:13;;;;;;;1999.90;999.90;;;9.80;99.90;;;;;;5046892;28;20399;-78
2022/10/11 03:24:39;;;;;;;1999.90;999.90;;;9.90;99.90;;;;;;5051465;28;20040;-78
2022/10/11 03:27:05;;;;;;;1999.90;999.90;;;10.20;99.90;;;;;;5050297;28;20099;-78
2022/10/11 03:29:30;;;;;;;1999.90;999.90;;;10.40;99.90;;;;;;5049369;28;20080;-78
2022/10/11 03:31:56;;;;;;;1152.65;382.63;;;9.60;99.90;;;;;;5051351;28;20127;-78
2022/10/11 03:34:22;;;;;;;1999.90;999.90;;;9.30;99.90;;;;;;5051599;28;20044;-78
2022/10/11 03:36:47;;;;;;;1999.90;999.90;;;9.60;99.90;;;;;;5054243;28;20049;-79
2022/10/11 03:39:13;;;;;;;1165.15;383.50;;;10.40;99.90;;;;;;5050736;28;20048;-79
2022/10/11 03:41:39;;;;;;;1062.70;204.25;;;10.80;99.90;;;;;;5065407;28;20135;-82
2022/10/11 03:44:04;;;;;;;1416.03;240.40;;;10.40;99.90;;;;;;5065880;28;20041;-79
2022/10/11 03:46:30;;;;;;;1999.90;999.90;;;9.80;99.90;;;;;;5051425;28;20045;-80
2022/10/11 03:48:56;;;;;;;1999.90;999.90;;;9.30;99.90;;;;;;5054526;28;20132;-79
2022/10/11 03:51:21;;;;;;;1675.25;780.80;;;9.70;99.90;;;;;;5050412;28;20437;-79
2022/10/11 03:53:47;;;;;;;1999.90;999.90;;;10.10;99.90;;;;;;5066957;28;20053;-78
2022/10/11 03:56:13;;;;;;;1999.90;999.90;;;9.40;99.90;;;;;;5049959;28;20055;-79
2022/10/11 03:58:40;;;;;;;1999.90;999.90;;;11.30;99.90;;;;;;5050109;28;20081;-82
2022/10/11 04:01:06;;;;;;;1999.90;999.90;;;10.60;99.90;;;;;;5053072;28;20401;-79
2022/10/11 04:03:32;;;;;;;1999.90;999.90;;;10.70;99.90;;;;;;5050036;28;20516;-79
2022/10/11 04:05:58;;;;;;;1999.90;999.90;;;9.50;99.90;;;;;;5050504;28;20056;-78
2022/10/11 04:08:23;;;;;;;1999.90;999.90;;;9.40;99.90;;;;;;5050574;28;20037;-78
2022/10/11 04:10:49;;;;;;;1999.90;999.90;;;10.70;99.90;;;;;;5049053;28;20106;-80
2022/10/11 04:13:15;;;;;;;1999.90;999.90;;;9.60;99.90;;;;;;5053218;28;20045;-81
2022/10/11 04:15:41;;;;;;;1999.90;999.90;;;9.20;99.90;;;;;;5032145;28;20599;-82
2022/10/11 04:18:07;;;;;;;1999.90;999.90;;;9.20;99.90;;;;;;5049006;28;20064;-79
2022/10/11 04:20:33;;;;;;;1107.88;196.77;;;9.40;99.90;;;;;;5048994;28;20061;-78
2022/10/11 04:22:59;;;;;;;1999.90;999.90;;;9.20;99.90;;;;;;5049544;28;20492;-79
2022/10/11 04:25:25;;;;;;;1999.90;999.90;;;9.80;99.90;;;;;;5016968;28;20044;-82
2022/10/11 04:27:51;;;;;;;829.70;180.98;;;9.50;99.90;;;;;;5050587;28;20041;-79
2022/10/11 04:30:16;;;;;;;1999.90;999.90;;;9.30;99.90;;;;;;5050386;28;20049;-80
2022/10/11 04:32:43;;;;;;;1999.90;999.90;;;9.30;99.90;;;;;;5064447;28;20047;-80
2022/10/11 04:35:10;;;;;;;1999.90;999.90;;;9.30;99.90;;;;;;5050501;28;20110;-80
2022/10/11 04:37:36;;;;;;;1999.90;999.90;;;9.30;99.90;;;;;;5065453;28;20437;-83
2022/10/11 04:40:03;;;;;;;1999.90;999.90;;;9.30;99.90;;;;;;5034440;28;20045;-80
2022/10/11 04:42:29;;;;;;;1999.90;999.90;;;9.40;99.90;;;;;;5050201;28;20048;-79
2022/10/11 04:44:55;;;;;;;1999.90;999.90;;;10.60;99.90;;;;;;5049600;28;20529;-82
2022/10/11 04:47:20;;;;;;;917.90;174.82;;;11.10;99.90;;;;;;5049127;28;20110;-80
2022/10/11 04:49:46;;;;;;;1999.90;999.90;;;9.50;99.90;;;;;;5049360;28;20084;-80
2022/10/11 04:52:12;;;;;;;1725.95;631.58;;;;;;;;;;5052119;28;20084;-80
2022/10/11 04:54:38;;;;;;;1999.90;999.90;;;9.30;99.90;;;;;;5064445;28;20045;-81
2022/10/11 04:57:03;;;;;;;1999.90;999.90;;;9.70;99.90;;;;;;5049371;28;20044;-82
2022/10/11 04:59:29;;;;;;;707.85;140.35;;;9.60;99.90;;;;;;5048560;28;20049;-80
2022/10/11 05:01:55;;;;;;;1671.47;780.20;;;9.60;99.90;;;;;;5047630;28;20053;-83
2022/10/11 05:04:21;;;;;;;1496.13;413.73;;;10.60;99.90;;;;;;5053468;28;20055;-80
2022/10/11 05:06:46;;;;;;;844.20;169.25;;;9.00;99.90;;;;;;5048227;28;20052;-80
2022/10/11 05:09:12;;;;;;;1159.43;216.45;;;9.60;99.90;;;;;;5049886;28;20041;-79
2022/10/11 05:11:38;;;;;;;1253.47;225.43;;;9.90;99.90;;;;;;5048209;28;20143;-79
2022/10/11 05:14:04;;;;;;;1999.90;999.90;;;9.90;99.90;;;;;;5048500;28;20049;-79
2022/10/11 05:16:30;;;;;;;1999.90;999.90;;;9.70;99.90;;;;;;5034490;28;20056;-79
2022/10/11 05:18:56;;;;;;;1999.90;999.90;;;10.30;99.90;;;;;;5048614;28;20055;-79
2022/10/11 05:21:24;;;;;;;1169.82;360.05;;;11.20;99.90;;;;;;5049694;28;20049;-79
2022/10/11 05:23:51;;;;;;;1999.90;999.90;;;9.80;99.90;;;;;;5048207;28;20049;-79
2022/10/11 05:26:18;;;;;;;1999.90;999.90;;;10.60;99.90;;;;;;5049240;28;20056;-81
2022/10/11 05:28:44;;;;;;;1999.90;999.90;;;10.10;99.90;;;;;;5053413;28;20046;-80
2022/10/11 05:31:10;;;;;;;1999.90;999.90;;;11.70;99.90;;;;;;5049874;28;20048;-80
2022/10/11 05:33:36;;;;;;;1999.90;999.90;;;11.90;99.90;;;;;;5048009;28;20373;-79
2022/10/11 05:36:03;;;;;;;1999.90;999.90;;;10.00;99.90;;;;;;5048195;28;20104;-79
2022/10/11 05:38:28;;;;;;;1999.90;999.90;;;10.10;99.90;;;;;;5048278;28;20041;-80
2022/10/11 05:40:58;;;;;;;1999.90;999.90;;;10.10;99.90;;;;;;5052072;28;20393;-83
2022/10/11 05:43:24;;;;;;;1999.90;999.90;;;10.10;99.90;;;;;;5051242;28;20091;-79
2022/10/11 05:45:50;;;;;;;1999.90;999.90;;;11.10;99.90;;;;;;5048304;28;20041;-79
2022/10/11 05:48:15;;;;;;;1999.90;999.90;;;10.00;99.90;;;;;;5048288;28;20386;-80
2022/10/11 05:50:41;;;;;;;1999.90;999.90;;;10.50;99.90;;;;;;5047801;28;20124;-82
2022/10/11 05:53:07;;;;;;;1999.90;999.90;;;;;;;;;;5049591;28;20454;-82
2022/10/11 05:55:38;;;;;;;1999.90;999.90;;;10.30;99.90;;;;;;5051367;28;20049;-81
2022/10/11 05:58:05;;;;;;;1999.90;999.90;;;10.40;99.90;;;;;;5047435;28;20040;-80
2022/10/11 06:00:30;;;;;;;1999.90;999.90;;;10.70;99.90;;;;;;5047662;28;20087;-79
2022/10/11 06:02:56;;;;;;;1999.90;999.90;;;11.60;99.90;;;;;;5047629;28;20555;-79
2022/10/11 06:05:22;;;;;;;629.03;130.07;;;12.20;99.90;;;;;;5052344;28;20049;-80
2022/10/11 06:07:47;;;;;;;1999.90;999.90;;;10.40;99.90;;;;;;5052190;28;20186;-79
2022/10/11 06:10:13;;;;;;;1999.90;999.90;;;10.60;99.90;;;;;;5068004;28;20059;-79
2022/10/11 06:12:38;;;;;;;1999.90;999.90;;;10.20;99.90;;;;;;5051915;28;20052;-78
2022/10/11 06:15:05;;;;;;;1999.90;999.90;;;10.20;99.90;;;;;;5052133;28;20327;-79
2022/10/11 06:17:31;;;;;;;1999.90;999.90;;;10.20;99.90;;;;;;5051314;28;20410;-78
2022/10/11 06:19:57;;;;;;;1999.90;999.90;;;10.60;99.90;;;;;;5052083;28;20049;-79
2022/10/11 06:22:22;;;;;;;1999.90;999.90;;;10.60;99.90;;;;;;5052411;28;20049;-79
2022/10/11 06:24:48;;;;;;;1999.90;999.90;;;10.30;99.90;;;;;;5050008;28;20047;-82
2022/10/11 06:27:14;;;;;;;1999.90;999.90;;;10.60;99.90;;;;;;5051815;28;20041;-79
2022/10/11 06:29:39;;;;;;;1999.90;999.90;;;10.40;99.90;;;;;;5052721;28;20049;-78
2022/10/11 06:32:05;;;;;;;1999.90;999.90;;;11.30;99.90;;;;;;5051906;28;20045;-78
2022/10/11 06:34:31;;;;;;;1999.90;999.90;;;10.60;99.90;;;;;;5052157;28;20040;-78
2022/10/11 06:36:57;;;;;;;1999.90;999.90;;;10.90;99.90;;;;;;5051671;28;20048;-78
2022/10/11 06:39:23;;;;;;;1999.90;999.90;;;11.00;99.90;;;;;;5034783;28;20044;-78
2022/10/11 06:41:48;;;;;;;1999.90;999.90;;;10.90;99.90;;;;;;5052017;28;20102;-81
2022/10/11 06:44:14;;;;;;;1999.90;999.90;;;11.00;99.90;;;;;;5051648;28;20358;-78
2022/10/11 06:46:40;;;;;;;1999.90;999.90;;;10.90;99.90;;;;;;5052495;28;20128;-78
2022/10/11 06:49:06;;;;;;;1999.90;999.90;;;11.00;99.90;;;;;;5052498;28;20072;-79
2022/10/11 06:51:34;;;;;;;1999.90;999.90;;;10.60;99.90;;;;;;5052698;28;20040;-78
2022/10/11 06:54:00;;;;;;;1999.90;999.90;;;10.70;99.90;;;;;;5052833;28;20083;-78
2022/10/11 06:56:27;;;;;;;1999.90;999.90;;;11.10;99.90;;;;;;5052241;28;20044;-78
2022/10/11 06:58:54;;;;;;;1999.90;999.90;;;10.80;99.90;;;;;;5052431;28;20377;-78
2022/10/11 07:01:22;;;;;;;1999.90;999.90;;;11.10;99.90;;;;;;5056256;28;20362;-78
2022/10/11 07:03:49;;;;;;;1999.90;999.90;;;10.80;99.90;;;;;;5056815;28;20094;-78
2022/10/11 07:06:18;;;;;;;1999.90;999.90;;;13.10;99.90;;;;;;5071913;28;20124;-83
2022/10/11 07:08:44;;;;;;;1999.90;999.90;;;11.70;99.90;;;;;;5056593;28;20037;-78
2022/10/11 07:11:15;;;;;;;1999.90;999.90;;;11.30;99.90;;;;;;5056322;28;20140;-78
2022/10/11 07:13:41;;;;;;;1999.90;999.90;;;11.10;99.90;;;;;;5071764;28;20120;-78
2022/10/11 07:16:10;;;;;;;1999.90;999.90;;;11.20;99.90;;;;;;5055921;28;20088;-78
2022/10/11 07:18:37;;;;;;;1999.90;999.90;;;11.20;99.90;;;;;;5056300;28;20056;-78
2022/10/11 07:21:07;;;;;;;1999.90;999.90;;;11.80;99.90;;;;;;5056080;28;20072;-78
2022/10/11 07:23:33;;;;;;;1999.90;999.90;;;11.50;99.90;;;;;;5056332;28;20123;-77
2022/10/11 07:25:59;;;;;;;1999.90;999.90;;;11.50;99.90;;;;;;5056026;28;20087;-78
2022/10/11 07:28:25;;;;;;;1999.90;999.90;;;12.00;99.90;;;;;;5055517;28;20080;-78
2022/10/11 07:30:51;;;;;;;1999.90;999.90;;;11.90;99.90;;;;;;5056292;28;20041;-78
2022/10/11 07:33:17;;;;;;;1999.90;999.90;;;12.50;99.90;;;;;;5055756;28;20040;-78
2022/10/11 07:35:42;;;;;;;1999.90;999.90;;;11.60;99.90;;;;;;5056235;28;20048;-77
2022/10/11 07:38:09;;;;;;;1999.90;999.90;;;12.20;99.90;;;;;;5054149;28;20037;-83
2022/10/11 07:40:44;;;;;;;1999.90;999.90;;;12.20;99.90;;;;;;5071830;28;20049;-77
2022/10/11 07:43:11;;;;;;;1999.90;999.90;;;11.80;99.90;;;;;;5055049;28;20496;-77
2022/10/11 07:45:38;;;;;;;1999.90;999.90;;;12.30;99.90;;;;;;5055985;28;20044;-78
2022/10/11 07:48:04;;;;;;;1999.90;999.90;;;12.80;99.90;;;;;;5055392;28;20166;-77
2022/10/11 07:50:30;;;;;;;1999.90;999.90;;;12.20;99.90;;;;;;5055884;28;20438;-78
2022/10/11 07:52:55;;;;;;;1999.90;999.90;;;12.60;99.90;;;;;;5055772;28;20112;-77
2022/10/11 07:55:21;;;;;;;1999.90;999.90;;;12.60;99.90;;;;;;5055871;28;20044;-77
2022/10/11 07:57:47;;;;;;;1999.90;999.90;;;12.60;99.90;;;;;;5054834;28;20037;-78
2022/10/11 08:00:13;;;;;;;1999.90;999.90;;;12.70;99.90;;;;;;5070548;28;20496;-78
2022/10/11 08:02:38;;;;;;;1999.90;999.90;;;12.80;99.90;;;;;;5055561;28;20044;-77
2022/10/11 08:05:04;;;;;;;1999.90;999.90;;;12.50;99.90;;;;;;5055343;28;20076;-77
2022/10/11 08:07:30;;;;;;;1999.90;999.90;;;12.60;99.90;;;;;;5055171;28;20045;-77
2022/10/11 08:09:56;;;;;;;1999.90;999.90;;;12.70;99.90;;;;;;5054290;28;20045;-77
2022/10/11 08:12:21;;;;;;;1999.90;999.90;;;12.90;99.90;;;;;;5054498;28;20041;-77
2022/10/11 08:14:47;;;;;;;1999.90;999.90;;;12.70;99.90;;;;;;5054234;28;20242;-77
2022/10/11 08:17:13;;;;;;;1999.90;999.90;;;13.30;99.90;;;;;;5054477;28;20059;-77
2022/10/11 08:19:39;;;;;;;1999.90;999.90;;;12.80;99.90;;;;;;5055009;28;20037;-77
2022/10/11 08:22:05;;;;;;;1999.90;999.90;;;13.20;99.90;;;;;;5055000;28;20053;-77
2022/10/11 08:24:31;;;;;;;1999.90;999.90;;;13.20;99.90;;;;;;5055219;28;20053;-77
2022/10/11 08:26:56;;;;;;;1999.90;999.90;;;13.00;99.90;;;;;;5054561;28;20469;-77
2022/10/11 08:29:22;;;;;;;1999.90;999.90;;;13.70;99.90;;;;;;5054838;28;20132;-76
2022/10/11 08:31:48;;;;;;;1999.90;999.90;;;14.50;1.00;;;;;;5053862;28;20079;-76
2022/10/11 08:34:14;;;;;;;1999.90;999.90;;;15.00;99.90;;;;;;5054762;28;20052;-76
2022/10/11 08:36:39;;;;;;;1999.90;999.90;;;15.20;1.00;;;;;;5054739;28;20120;-76
2022/10/11 08:39:05;;;;;;;1999.90;999.90;;;16.40;99.90;;;;;;5054579;28;20124;-76
2022/10/11 08:41:40;;;;;;;1999.90;999.90;;;17.10;99.90;;;;;;5070288;28;20044;-76
2022/10/11 08:44:30;;;;;;;1999.90;999.90;;;17.30;18.30;;;;;;5054560;28;20052;-76
2022/10/11 08:47:11;;;;;;;1999.90;999.90;;;18.20;1.00;;;;;;5054614;28;20037;-76
2022/10/11 08:49:37;;;;;;;1999.90;999.90;;;18.80;99.90;;;;;;5054786;28;20469;-76
2022/10/11 08:52:12;;;;;;;1999.90;999.90;;;19.50;85.50;;;;;;5054364;28;20045;-83
2022/10/11 08:55:04;;;;;;;1999.90;999.90;;;19.90;1.00;;;;;;5054459;28;20535;-76
2022/10/11 08:57:34;;;;;;;1999.90;999.90;;;20.50;1.00;;;;;;5053017;28;20052;-76
2022/10/11 09:00:06;;;;;;;1999.90;999.90;;;21.00;1.00;;;;;;5054505;28;20029;-75
2022/10/11 09:03:10;;;;;;;1999.90;999.90;;;21.50;1.00;;;;;;5054509;28;20041;-76
2022/10/11 09:05:55;;;;;;;1999.90;999.90;;;22.10;99.90;;;;;;5054550;28;20040;-76
2022/10/11 09:08:29;;;;;;;1999.90;999.90;;;21.90;99.90;;;;;;5053821;28;20041;-76
2022/10/11 09:11:22;;;;;;;1999.90;999.90;;;21.70;99.90;;;;;;5054313;28;20045;-78
2022/10/11 09:13:55;;;;;;;1999.90;999.90;;;21.90;99.90;;;;;;5054393;28;20479;-75
2022/10/11 09:16:20;;;;;;;1999.90;999.90;;;21.60;99.90;;;;;;5053829;28;20036;-76
2022/10/11 09:19:06;;;;;;;1999.90;999.90;;;22.20;99.90;;;;;;5053872;28;20067;-76
2022/10/11 09:21:56;;;;;;;1999.90;999.90;;;22.50;99.90;;;;;;5069625;28;20439;-76
2022/10/11 09:24:40;;;;;;;1999.90;999.90;;;22.40;99.90;;;;;;5053625;28;20045;-76
2022/10/11 09:27:11;;;;;;;1999.90;999.90;;;21.40;99.90;;;;;;5053710;28;20055;-76
2022/10/11 09:30:01;;;;;;;1999.90;999.90;;;19.90;99.90;;;;;;5069237;28;20473;-76
2022/10/11 09:32:50;;;;;;;1999.90;999.90;;;19.00;99.90;;;;;;5053427;28;20175;-76
2022/10/11 09:35:19;;;;;;;1999.90;999.90;;;18.10;99.90;;;;;;5053777;28;20495;-76
2022/10/11 09:37:52;;;;;;;1999.90;999.90;;;17.80;99.90;;;;;;5053719;28;20045;-76
2022/10/11 09:40:30;;;;;;;1999.90;999.90;;;17.60;99.90;;;;;;5053167;28;20558;-76
2022/10/11 09:42:58;;;;;;;1999.90;999.90;;;17.30;99.90;;;;;;5053552;28;20047;-76
2022/10/11 09:45:24;;;;;;;1999.90;999.90;;;17.00;99.90;;;;;;5053427;28;20044;-76
2022/10/11 09:47:52;;;;;;;1999.90;999.90;;;16.90;99.90;;;;;;5053598;28;20045;-76
2022/10/11 09:50:22;;;;;;;1999.90;999.90;;;17.10;99.90;;;;;;5052408;28;20481;-76
2022/10/11 09:52:53;;;;;;;1999.90;999.90;;;17.00;99.90;;;;;;5052867;28;20053;-76
2022/10/11 09:55:44;;;;;;;1999.90;999.90;;;17.00;99.90;;;;;;5052502;28;20048;-76
2022/10/11 09:58:27;;;;;;;1999.90;999.90;;;16.90;99.90;;;;;;5052764;28;20120;-77
2022/10/11 10:01:13;;;;;;;1999.90;999.90;;;16.80;99.90;;;;;;5053207;28;20110;-75
2022/10/11 10:03:43;;;;;;;1999.90;999.90;;;16.80;99.90;;;;;;5053259;28;20064;-76
2022/10/11 10:06:20;;;;;;;1999.90;999.90;;;16.90;99.90;;;;;;5053209;28;20063;-76
2022/10/11 10:08:46;;;;;;;1999.90;999.90;;;17.00;99.90;;;;;;5035536;28;20124;-76
2022/10/11 10:11:13;;;;;;;1999.90;999.90;;;17.10;99.90;;;;;;5034810;28;20129;-76
2022/10/11 10:13:44;;;;;;;1999.90;999.90;;;17.10;99.90;;;;;;5068477;28;20045;-76
2022/10/11 10:16:31;;;;;;;1999.90;999.90;;;17.00;99.90;;;;;;5053291;28;20087;-76
2022/10/11 10:19:03;;;;;;;1999.90;999.90;;;17.00;99.90;;;;;;5068615;28;20088;-76
2022/10/11 10:21:34;;;;;;;1999.90;999.90;;;17.00;99.90;;;;;;5052508;28;20048;-76
2022/10/11 10:24:04;;;;;;;1999.90;999.90;;;17.10;99.90;;;;;;5053011;28;20045;-76
2022/10/11 10:26:31;;;;;;;1999.90;999.90;;;17.30;1.00;;;;;;5051970;28;20075;-77
2022/10/11 10:28:56;;;;;;;1999.90;999.90;;;17.50;99.90;;;;;;5052893;28;20048;-76
2022/10/11 10:31:48;;;;;;;1999.90;999.90;;;17.70;99.90;;;;;;5052360;28;20044;-77
2022/10/11 10:34:27;;;;;;;1999.90;999.90;;;18.10;99.90;;;;;;5052588;28;20044;-76
2022/10/11 10:36:56;;;;;;;1999.90;999.90;;;18.30;99.90;;;;;;5052877;28;20049;-76
2022/10/11 10:39:43;;;;;;;1999.90;999.90;;;18.50;99.90;;;;;;5052529;28;20037;-76
2022/10/11 10:42:17;;;;;;;1999.90;999.90;;;18.70;99.90;;;;;;5052140;28;20040;-77
2022/10/11 10:44:48;;;;;;;1999.90;999.90;;;18.70;99.90;;;;;;5052401;28;20080;-77
2022/10/11 10:47:23;;;;;;;1999.90;999.90;;;19.00;99.90;;;;;;5052472;28;20120;-78
2022/10/11 10:50:36;;;;;;;1999.90;999.90;;;19.50;99.90;;;;;;5052636;28;20059;-77
2022/10/11 10:53:01;;;;;;;1999.90;999.90;;;20.20;99.90;;;;;;5029978;28;20520;-77
2022/10/11 10:55:38;;;;;;;1999.90;999.90;;;21.40;99.90;;;;;;5047297;28;20136;-77
2022/10/11 10:58:31;;;;;;;1999.90;999.90;;;21.70;99.90;;;;;;5051880;28;20081;-77
2022/10/11 11:01:09;;;;;;;1999.90;999.90;;;21.60;99.90;;;;;;5052614;28;20088;-78
2022/10/11 11:04:03;;;;;;;1999.90;999.90;;;22.40;99.90;;;;;;5068025;28;20057;-78
2022/10/11 11:06:47;;;;;;;1999.90;999.90;;;22.90;99.90;;;;;;5067960;28;20048;-77
2022/10/11 11:09:45;;;;;;;1999.90;999.90;;;23.20;99.90;;;;;;5052167;28;20045;-78
2022/10/11 11:12:17;;;;;;;1999.90;999.90;;;22.90;99.90;;;;;;5051530;28;20460;-78
2022/10/11 11:15:05;;;;;;;1905.53;575.55;;;22.00;99.90;;;;;;5052411;28;20091;-78
2022/10/11 11:18:09;;;;;;;1999.90;999.90;;;21.50;99.90;;;;;;5050777;28;20059;-77
2022/10/11 11:20:46;;;;;;;1999.90;999.90;;;21.30;99.90;;;;;;5084810;28;20099;-78
2022/10/11 11:23:35;;;;;;;1999.90;999.90;;;20.60;99.90;;;;;;5052393;28;20057;-78
2022/10/11 11:26:07;;;;;;;1999.90;999.90;;;20.30;99.90;;;;;;5034720;28;20271;-77
2022/10/11 11:28:45;;;;;;;1999.90;999.90;;;19.90;99.90;;;;;;5051167;28;20520;-77
2022/10/11 11:31:10;;;;;;;1999.90;999.90;;;19.60;99.90;;;;;;5052162;28;20095;-77
2022/10/11 11:33:49;;;;;;;1999.90;999.90;;;19.20;99.90;;;;;;5051437;28;20049;-77
2022/10/11 11:36:17;;;;;;;;;;;19.00;99.90;;;;;;5052698;28;20134;-80
2022/10/11 11:38:58;;;;;;;1999.90;999.90;;;18.90;99.90;;;;;;5051816;28;20254;-77
2022/10/11 11:41:36;;;;;;;1999.90;999.90;;;18.70;99.90;;;;;;5051274;28;20055;-79
2022/10/11 11:44:09;;;;;;;;;;;18.60;99.90;;;;;;5052751;28;20048;-77
2022/10/11 11:46:43;;;;;;;1999.90;999.90;;;18.60;99.90;;;;;;5053973;28;19921;-78
2022/10/11 11:49:43;;;;;;;1999.90;999.90;;;18.50;99.90;;;;;;5071611;28;20072;-77
2022/10/11 11:52:34;;;;;;;1999.90;999.90;;;18.50;99.90;;;;;;5055591;28;20041;-77
2022/10/11 11:55:15;;;;;;;1999.90;999.90;;;18.40;99.90;;;;;;5055892;28;20049;-78
2022/10/11 11:57:46;;;;;;;1999.90;999.90;;;18.60;99.90;;;;;;5055134;28;20045;-78
2022/10/11 12:00:14;;;;;;;1999.90;999.90;;;19.60;99.90;;;;;;5055761;28;20044;-77
2022/10/11 12:02:42;;;;;;;1999.90;999.90;;;19.90;99.90;;;;;;5055358;28;20318;-77
2022/10/11 12:05:11;;;;;;;1999.90;999.90;;;19.60;99.90;;;;;;5055969;28;20456;-77
2022/10/11 12:08:07;;;;;;;1999.90;999.90;;;19.00;99.90;;;;;;5037619;28;20037;-79
2022/10/11 12:10:36;;;;;;;1999.90;999.90;;;18.80;99.90;;;;;;5054349;28;20540;-77
2022/10/11 12:13:26;;;;;;;1999.90;999.90;;;18.70;99.90;;;;;;5054846;28;20049;-77
2022/10/11 12:16:11;;;;;;;1999.90;999.90;;;18.50;99.90;;;;;;5071302;28;20374;-77
2022/10/11 12:18:51;;;;;;;1999.90;999.90;;;18.30;99.90;;;;;;5070302;28;20661;-77
2022/10/11 12:21:33;;;;;;;1999.90;999.90;;;18.20;99.90;;;;;;5055301;28;20076;-77
2022/10/11 12:24:08;;;;;;;1999.90;999.90;;;18.10;99.90;;;;;;5055124;28;20083;-77